Friday, April 29, 2016
12:08 UTC
  |  Log In   |  Register Free
Airport Search:

Northeast Philadelphia Airport
(KPNE)

FAA data valid effective Mar 31 2016 - May 26 2016 (unless otherwise noted).

 
 
 
 
 
 
 
 
 
 
 
 
 
 
Current Aviation Weather for KPNE

Weather Summary


The most recent METAR observation for PNE was updated at: 12:54 UTC
METAR for KPNE is not available. Closest METAR is for KVAY
KPNE  (most recent observation was updatred at 29:11 UTC)
291154Z AUTO 05005KT 7SM OVC033 09/06 A3009 RMK AO2 SLP191 70026 T00890061 10089 20078 53012 TSNO $

KVAY  (11.3 nm NW)   (most recent observation was updated at 29:11 UTC)
291154Z AUTO VRB05KT 10SM OVC033 08/06 A3008 RMK AO2 SLP184 60000 70013 T00830061 10083 20061 51013 TSNO

KLOM  (12.2 nm SE)   (most recent observation was updated at 29:11 UTC)
291155Z AUTO 00000KT 7SM OVC029 07/06 A3007 RMK AO1

TAF for KPNE is not available.
KPNE
291141Z 2912/3012 04005KT P6SM SCT025 OVC035 FM291600 08010KT 6SM BR VCSH BKN025 OVC040 TEMPO 2916/2920 4SM -SHRA BR OVC015 FM300100 09005KT 4SM BR OVC008

KTTN  (14.8 nm SW)   (most recent observation was updatred at 29:11 UTC)
291141Z 2912/3012 05005KT P6SM OVC035 FM291600 10010KT P6SM OVC030 TEMPO 2917/2921 5SM -RA BR BKN020 FM300000 09006KT 5SM -DZ BR OVC012 FM300300 06005KT 3SM -DZ BR OVC006


KPHL  (16.5 nm NE)   (most recent observation was updatred at 29:11 UTC)
291141Z 2912/3018 05009KT P6SM BKN020 OVC030 FM291600 08010KT 6SM BR VCSH BKN025 OVC040 TEMPO 2916/2920 4SM -SHRA BR OVC015 FM300100 09005KT 4SM BR OVC008
GlobalAir.com is loading additional information.
 Current Weather at PNE
47.0 F° (8.3 C°)

Northeast winds at 5.8 mph
Pressure:
30.09 in
Humidity:
86%
Wind:
Northeast at 5.8 mph
Dew Point:
43.0 F° (6.1 C°)
Visibility:
7.00 mi
PNE NOAA Radar




Find All Airport Services Find A Hotel Find A Rental Car Find A Golf Course Find A Restaurant $100 Hamburger



Airport Weather Forecast for KPNE

Translated METAR for KPNE (1154 UTC)
METAR:
KPNE 291154Z AUTO 05005KT 7SM OVC033 09/06 A3009 RMK AO2 SLP191 70026 T00890061 10089 20078 53012 TSNO $
Conditions at:
KPNE (Northeast Philadelphia, PA) observed 1154 UTC 29 April 2016
Temperature:
9°C (48.2°F)
Dewpoint:
6°C (42.8°F) [RH = 81.5]
Pressure:
30.09 inches Hg (1019 mb)
pressure at sea level is 191 in Hg
Winds:
from the NE (050 degrees) at 5.8 mph (5 knots: 2.6 m/s)
Visibility:
7 mile(s)
Ceiling:
3,300 feet AGL
Clouds:
Overcast Skies at 3,300 feet AGL
Remarks:
site is un-manned
SOME DATA ABOVE MAY BE INACCURATE!!!
"$" is an indication the sensor requires maintenance
site is automated and HAS a precipitation sensor

Translated TAF for KPNE (Northeast Philadelphia, PA) (1141 UTC)
TAF text:
KPNE 291141Z 2912/3012 04005KT P6SM SCT025 OVC035
Forecast period:
Friday Apr 29 2016 12:00 UTC - Saturday Apr 30 2016 12:00 UTC
Forecast type:
FROM: standard forecast or significant change
Winds:
from the NE (040 degrees) at 5.8 mph (5 knots: 2.6 m/s)
Visibility:
6 or more mile(s) (9.7+ km)
Ceiling:
3,500 feet AGL
Clouds:
Scattered Clouds at 2,500 feet AGL
Overcast Skies at 3,500 feet AGL
Weather:
no significant weather observed at this time
TAF text:
FM291600 08010KT 6SM BR VCSH BKN025 OVC040
Forecast period:
Friday Apr 29 2016 16:00 UTC - Saturday Apr 30 2016 01:00 UTC
Forecast type:
FROM: standard forecast or significant change
Winds:
from the E (080 degrees) at 11.5 mph (10 knots: 5.1 m/s)
Visibility:
6 mile(s) (9.7 km)
Ceiling:
2,500 feet AGL
Clouds:
Broken Cloud Cover at 2,500 feet AGL
Overcast Skies at 4,000 feet AGL
Weather:
Moderate Mist
TAF text:
2916/2920 4SM -SHRA BR OVC015
Forecast period:
Saturday Apr 30 2016 16:00 UTC - Saturday Apr 30 2016 20:00 UTC
Forecast type:
FROM: standard forecast or significant change
Winds:
Visibility:
4 mile(s) (6.4 km)
Ceiling:
1,500 feet AGL
Clouds:
Overcast Skies at 1,500 feet AGL
Weather:
Light Shower(s) Rain
TAF text:
FM300100 09005KT 4SM BR OVC008
Forecast period:
Saturday Apr 30 2016 01:00 UTC - Saturday Apr 30 2016 12:00 UTC
Forecast type:
FROM: standard forecast or significant change
Winds:
from the E (090 degrees) at 5.8 mph (5 knots: 2.6 m/s)
Visibility:
4 mile(s) (6.4 km)
Ceiling:
800 feet AGL
Clouds:
Overcast Skies at 800 feet AGL
Weather:
Moderate Mist
FBO's on the Field
FBO Company Facility Photos Services Transportation Aviation Fuel Prices: Prices include tax
Catering Weather Repair Courtesy Rental Type 100LL JetA JetA+ MOGAS 8087
 
Atlantic Aviation

This FBO has not yet been rated
FS:Independent
Last Updated: Apr-29
Login to update fuel prices
SS:
Contact Atlantic AviationMore FBO Information
 
North Philadelphia Jet Center

Currently rated 5 by 2 people
FS:Avfuel
Last Updated: Apr-25
Login to update fuel prices
SS:
Contact North Philadelphia Jet CenterMore FBO Information
 
Add another FBO Facility Photos Catering Weather Repair Courtesy Rental Type 100LL JetA JetA+ MOGAS 8087
Services Transportation Aviation Fuel Prices: Prices include tax


model-print
model-print
model-print
model-print